Time;durP1;ratioP1;P1;durP2;ratioP2;P2;SDS_P1;SDS_P2;PMS_P1;PMS_P2;Temp;Humidity;BMP_temperature;BMP_pressure;BME280_temperature;BME280_humidity;BME280_pressure;Samples;Min_cycle;Max_cycle;Signal;HPM_P1;HPM_P2
2022/05/19 00:02:10;;;;;;;0.00;0.00;;;21.90;67.60;;;;;;4146602;28;20046;-68
2022/05/19 00:04:33;;;;;;;0.00;0.00;;;21.90;67.50;;;;;;4146229;28;20062;-68
2022/05/19 00:06:57;;;;;;;0.00;0.00;;;21.80;67.40;;;;;;4146225;28;20089;-68
2022/05/19 00:09:24;;;;;;;0.00;0.00;;;21.70;68.00;;;;;;4146206;28;20060;-68
2022/05/19 00:12:00;;;;;;;0.00;0.00;;;21.60;68.40;;;;;;4146944;28;20114;-67
2022/05/19 00:14:35;;;;;;;0.00;0.00;;;21.60;68.50;;;;;;4146237;28;20050;-69
2022/05/19 00:16:57;;;;;;;0.00;0.00;;;21.60;68.40;;;;;;4146922;28;20065;-67
2022/05/19 00:19:30;;;;;;;0.00;0.00;;;21.60;68.50;;;;;;4146946;28;20050;-69
2022/05/19 00:22:01;;;;;;;0.00;0.00;;;21.50;68.80;;;;;;4146869;28;20050;-67
2022/05/19 00:24:29;;;;;;;0.00;0.00;;;21.50;68.70;;;;;;4148068;28;20054;-67
2022/05/19 00:26:53;;;;;;;0.00;0.00;;;21.50;68.50;;;;;;4146694;28;20042;-67
2022/05/19 00:29:16;;;;;;;0.00;0.00;;;21.50;68.10;;;;;;4146090;28;20053;-67
2022/05/19 00:31:42;;;;;;;0.00;0.00;;;21.50;68.00;;;;;;4146650;28;20049;-67
2022/05/19 00:34:07;;;;;;;0.00;0.00;;;21.50;67.70;;;;;;4146030;28;20497;-67
2022/05/19 00:36:33;;;;;;;0.00;0.00;;;21.50;67.50;;;;;;4146654;28;20048;-67
2022/05/19 00:39:00;;;;;;;0.00;0.00;;;21.50;67.40;;;;;;4146651;28;20129;-67
2022/05/19 00:41:27;;;;;;;0.00;0.00;;;21.50;67.40;;;;;;4146604;28;20081;-68
2022/05/19 00:44:11;;;;;;;0.00;0.00;;;21.40;67.20;;;;;;4145831;28;20042;-67
2022/05/19 00:46:37;;;;;;;0.00;0.00;;;21.50;67.20;;;;;;4145711;28;20126;-68
2022/05/19 00:49:25;;;;;;;0.00;0.00;;;21.40;67.40;;;;;;4133702;28;20187;-67
2022/05/19 00:51:58;;;;;;;0.00;0.00;;;21.40;67.70;;;;;;4145495;28;20058;-68
2022/05/19 00:54:57;;;;;;;0.00;0.00;;;21.40;67.60;;;;;;4132157;28;20088;-66
2022/05/19 00:57:24;;;;;;;0.00;0.00;;;21.40;67.50;;;;;;4158536;28;20089;-67
2022/05/19 01:02:59;;;;;;;0.00;0.00;;;21.30;67.70;;;;;;4146310;28;20480;-67
2022/05/19 01:09:04;;;;;;;0.00;0.00;;;21.20;68.20;;;;;;4157616;28;20041;-67
2022/05/19 01:11:29;;;;;;;0.00;0.00;;;21.20;68.30;;;;;;4148501;28;20064;-67
2022/05/19 01:13:53;;;;;;;0.00;0.00;;;21.10;68.30;;;;;;4147790;28;20443;-68
2022/05/19 01:16:33;;;;;;;0.00;0.00;;;21.20;68.40;;;;;;4136130;28;20140;-67
2022/05/19 01:19:09;;;;;;;0.00;0.00;;;21.20;69.00;;;;;;4162373;28;20054;-67
2022/05/19 01:21:41;;;;;;;0.00;0.00;;;21.20;68.40;;;;;;4149292;28;20057;-67
2022/05/19 01:24:25;;;;;;;0.00;0.00;;;21.20;68.60;;;;;;4162252;28;20064;-66
2022/05/19 01:26:57;;;;;;;0.00;0.00;;;21.20;69.00;;;;;;4148694;28;20065;-67
2022/05/19 01:29:28;;;;;;;0.00;0.00;;;21.10;69.20;;;;;;4175080;28;20460;-66
2022/05/19 01:32:02;;;;;;;0.00;0.00;;;21.00;69.90;;;;;;4149131;28;20515;-66
2022/05/19 01:34:28;;;;;;;0.00;0.00;;;20.90;69.90;;;;;;4162054;28;20344;-67
2022/05/19 01:36:55;;;;;;;0.00;0.00;;;20.80;70.40;;;;;;4160886;28;20054;-67
2022/05/19 01:39:26;;;;;;;0.00;0.00;;;20.70;70.60;;;;;;4134069;28;20144;-68
2022/05/19 01:42:13;;;;;;;0.00;0.00;;;20.80;70.70;;;;;;4148013;28;20114;-67
2022/05/19 01:44:37;;;;;;;0.00;0.00;;;20.80;70.90;;;;;;4147911;28;20126;-67
2022/05/19 01:47:18;;;;;;;0.00;0.00;;;20.80;70.90;;;;;;4134583;28;20054;-69
2022/05/19 01:49:43;;;;;;;0.00;0.00;;;20.80;71.10;;;;;;4120203;28;20089;-67
2022/05/19 01:52:22;;;;;;;0.00;0.00;;;20.80;71.60;;;;;;4134256;28;20598;-67
2022/05/19 01:55:19;;;;;;;0.00;0.00;;;20.70;71.90;;;;;;4133994;28;20166;-67
2022/05/19 01:58:26;;;;;;;0.00;0.00;;;20.80;72.00;;;;;;4120957;28;20127;-69
2022/05/19 02:00:53;;;;;;;0.00;0.00;;;20.80;71.90;;;;;;4178796;28;20080;-68
2022/05/19 02:03:25;;;;;;;0.00;0.00;;;20.80;71.90;;;;;;4174678;28;20110;-67
2022/05/19 02:06:17;;;;;;;0.00;0.00;;;20.80;72.10;;;;;;4174746;28;20512;-67
2022/05/19 02:08:44;;;;;;;0.00;0.00;;;20.80;72.00;;;;;;4145795;28;20050;-66
2022/05/19 02:11:10;;;;;;;0.00;0.00;;;20.80;72.10;;;;;;4133766;28;20037;-67
2022/05/19 02:13:33;;;;;;;0.00;0.00;;;20.70;72.00;;;;;;4134210;28;20424;-69
2022/05/19 02:15:56;;;;;;;0.00;0.00;;;20.70;72.20;;;;;;4133481;28;20050;-67
2022/05/19 02:18:24;;;;;;;0.00;0.00;;;20.70;72.10;;;;;;4147307;28;20046;-66
2022/05/19 02:20:49;;;;;;;0.00;0.00;;;20.80;72.50;;;;;;4174834;28;20080;-68
2022/05/19 02:23:17;;;;;;;0.00;0.00;;;20.70;72.80;;;;;;4148108;28;20049;-68
2022/05/19 02:25:43;;;;;;;0.00;0.00;;;20.70;72.90;;;;;;4134059;28;20068;-67
2022/05/19 02:28:18;;;;;;;0.00;0.00;;;20.70;72.80;;;;;;4147044;28;20111;-67
2022/05/19 02:30:44;;;;;;;0.00;0.00;;;20.70;73.10;;;;;;4147051;28;20038;-68
2022/05/19 02:33:11;;;;;;;0.00;0.00;;;20.60;73.40;;;;;;4204584;28;20154;-67
2022/05/19 02:35:33;;;;;;;0.00;0.00;;;20.60;73.50;;;;;;4146841;28;20046;-69
2022/05/19 02:37:57;;;;;;;0.00;0.00;;;20.60;73.50;;;;;;4146882;28;20042;-68
2022/05/19 02:40:24;;;;;;;0.00;0.00;;;20.60;73.50;;;;;;4160673;28;20494;-68
2022/05/19 02:42:49;;;;;;;0.00;0.00;;;20.60;73.40;;;;;;4160671;28;20057;-70
2022/05/19 02:45:18;;;;;;;0.00;0.00;;;20.60;73.60;;;;;;4133537;28;20141;-69
2022/05/19 02:47:40;;;;;;;0.00;0.00;;;20.60;73.80;;;;;;4147265;28;20054;-68
2022/05/19 02:50:03;;;;;;;0.00;0.00;;;20.50;73.80;;;;;;4146667;28;20060;-68
2022/05/19 02:52:28;;;;;;;0.00;0.00;;;20.40;74.00;;;;;;4147019;28;20054;-68
2022/05/19 02:54:50;;;;;;;0.00;0.00;;;20.50;74.00;;;;;;4160800;28;20140;-69
2022/05/19 02:57:12;;;;;;;0.00;0.00;;;20.50;73.90;;;;;;4133077;28;20043;-68
2022/05/19 02:59:38;;;;;;;0.00;0.00;;;20.50;73.80;;;;;;4147387;28;20046;-68
2022/05/19 03:02:00;;;;;;;0.00;0.00;;;20.50;73.60;;;;;;4161102;28;20135;-68
2022/05/19 03:04:25;;;;;;;0.00;0.00;;;20.50;73.60;;;;;;4146968;28;20110;-69
2022/05/19 03:06:47;;;;;;;0.00;0.00;;;20.50;73.70;;;;;;4203798;28;20548;-68
2022/05/19 03:09:12;;;;;;;0.00;0.00;;;20.40;73.80;;;;;;4133153;28;20112;-69
2022/05/19 03:11:36;;;;;;;0.00;0.00;;;20.40;73.80;;;;;;4132859;28;20086;-68
2022/05/19 03:13:59;;;;;;;0.00;0.00;;;20.40;73.90;;;;;;4174285;28;20507;-68
2022/05/19 03:16:21;;;;;;;0.00;0.00;;;20.40;74.00;;;;;;4146945;28;20050;-69
2022/05/19 03:18:45;;;;;;;0.00;0.00;;;20.40;74.10;;;;;;4174664;28;20099;-68
2022/05/19 03:21:07;;;;;;;0.00;0.00;;;20.40;74.10;;;;;;4146591;28;20111;-68
2022/05/19 03:23:30;;;;;;;0.00;0.00;;;20.40;74.10;;;;;;4119668;28;20512;-68
2022/05/19 03:25:56;;;;;;;0.00;0.00;;;20.40;74.30;;;;;;4146477;28;20141;-69
2022/05/19 03:28:20;;;;;;;0.00;0.00;;;20.40;74.40;;;;;;4146545;28;20392;-70
2022/05/19 03:30:47;;;;;;;0.00;0.00;;;20.40;74.40;;;;;;4146767;28;20053;-70
2022/05/19 03:33:14;;;;;;;0.00;0.00;;;20.30;74.50;;;;;;4146365;28;20042;-69
2022/05/19 03:35:42;;;;;;;0.00;0.00;;;20.30;74.60;;;;;;4146757;28;20053;-70
2022/05/19 03:38:04;;;;;;;0.00;0.00;;;20.20;74.80;;;;;;4133356;28;20349;-67
2022/05/19 03:40:29;;;;;;;0.00;0.00;;;20.20;74.80;;;;;;4146445;28;20042;-68
2022/05/19 03:42:56;;;;;;;0.00;0.00;;;20.20;74.80;;;;;;4146723;28;20050;-66
2022/05/19 03:45:21;;;;;;;0.00;0.00;;;20.20;74.90;;;;;;4146249;28;20091;-67
2022/05/19 03:47:43;;;;;;;0.00;0.00;;;20.20;74.90;;;;;;4132956;28;20590;-67
2022/05/19 03:50:06;;;;;;;0.00;0.00;;;20.20;75.00;;;;;;4146269;28;20428;-67
2022/05/19 03:52:36;;;;;;;0.00;0.00;;;20.20;75.00;;;;;;4146091;28;20042;-66
2022/05/19 03:54:58;;;;;;;0.00;0.00;;;20.20;75.10;;;;;;4159968;28;20462;-67
2022/05/19 03:57:21;;;;;;;0.00;0.00;;;20.10;75.10;;;;;;4132734;28;20083;-68
2022/05/19 03:59:43;;;;;;;0.00;0.00;;;20.10;75.30;;;;;;4146280;28;20479;-67
2022/05/19 04:02:07;;;;;;;0.00;0.00;;;20.10;75.50;;;;;;4132641;28;20050;-67
2022/05/19 04:04:51;;;;;;;0.00;0.00;;;20.10;75.70;;;;;;4135567;28;20144;-66
2022/05/19 04:07:13;;;;;;;0.00;0.00;;;20.10;75.90;;;;;;4118956;28;20039;-67
2022/05/19 04:09:36;;;;;;;0.00;0.00;;;20.10;76.00;;;;;;4133288;28;20046;-67
2022/05/19 04:12:00;;;;;;;0.00;0.00;;;20.10;76.10;;;;;;4159641;28;20115;-68
2022/05/19 04:14:24;;;;;;;0.00;0.00;;;20.10;76.20;;;;;;4147015;28;20266;-68
2022/05/19 04:16:50;;;;;;;0.00;0.00;;;20.10;76.20;;;;;;4132655;28;20119;-67
2022/05/19 04:19:12;;;;;;;0.00;0.00;;;20.10;76.30;;;;;;4146300;28;20137;-67
2022/05/19 04:21:39;;;;;;;0.00;0.00;;;20.10;76.40;;;;;;4145965;28;20147;-67
2022/05/19 04:24:01;;;;;;;0.00;0.00;;;20.10;76.50;;;;;;4159731;28;20046;-67
2022/05/19 04:26:23;;;;;;;0.00;0.00;;;20.10;76.60;;;;;;4159688;28;20049;-67
2022/05/19 04:28:45;;;;;;;0.00;0.00;;;20.10;76.70;;;;;;4148735;28;20065;-67
2022/05/19 04:31:12;;;;;;;0.00;0.00;;;20.20;76.80;;;;;;4149023;28;20383;-66
2022/05/19 04:33:36;;;;;;;0.00;0.00;;;20.20;76.60;;;;;;4135660;28;20077;-67
2022/05/19 04:35:58;;;;;;;0.00;0.00;;;20.30;76.90;;;;;;4149012;28;20104;-67
2022/05/19 04:38:21;;;;;;;0.00;0.00;;;20.30;76.80;;;;;;4135721;28;20361;-67
2022/05/19 04:40:49;;;;;;;0.00;0.00;;;20.30;77.00;;;;;;4205831;28;20061;-67
2022/05/19 04:43:11;;;;;;;0.00;0.00;;;20.30;77.10;;;;;;4149313;28;20572;-68
2022/05/19 04:45:36;;;;;;;0.00;0.00;;;20.40;77.20;;;;;;4135475;28;20058;-67
2022/05/19 04:47:58;;;;;;;0.00;0.00;;;20.30;77.70;;;;;;4162638;28;20155;-67
2022/05/19 04:50:20;;;;;;;0.00;0.00;;;20.30;77.30;;;;;;4134944;28;20058;-68
2022/05/19 04:52:46;;;;;;;0.00;0.00;;;20.40;77.40;;;;;;4148803;28;20115;-68
2022/05/19 04:55:12;;;;;;;0.00;0.00;;;20.40;77.60;;;;;;4122360;28;20418;-67
2022/05/19 04:57:34;;;;;;;0.00;0.00;;;20.50;77.70;;;;;;4149041;28;20075;-67
2022/05/19 04:59:58;;;;;;;0.00;0.00;;;20.50;77.90;;;;;;4162627;28;20047;-67
2022/05/19 05:02:23;;;;;;;0.00;0.00;;;20.60;77.90;;;;;;4135163;28;20059;-69
2022/05/19 05:04:47;;;;;;;0.00;0.00;;;20.70;78.00;;;;;;4149058;28;20045;-67
2022/05/19 05:07:12;;;;;;;0.00;0.00;;;20.80;78.00;;;;;;4135024;28;20040;-68
2022/05/19 05:09:36;;;;;;;0.00;0.00;;;20.80;78.20;;;;;;4135400;28;20038;-68
2022/05/19 05:12:05;;;;;;;0.00;0.00;;;20.90;78.20;;;;;;4149548;28;20091;-68
2022/05/19 05:14:29;;;;;;;0.00;0.00;;;21.00;78.00;;;;;;4149590;28;20523;-68
2022/05/19 05:16:53;;;;;;;0.00;0.00;;;21.00;77.60;;;;;;4135503;28;20115;-66
2022/05/19 05:19:19;;;;;;;0.00;0.00;;;21.10;77.50;;;;;;4135436;28;20046;-65
2022/05/19 05:21:41;;;;;;;0.00;0.00;;;21.10;77.40;;;;;;4135344;28;20070;-66
2022/05/19 05:24:05;;;;;;;0.00;0.00;;;21.20;77.50;;;;;;4162226;28;20061;-66
2022/05/19 05:26:30;;;;;;;0.00;0.00;;;21.20;77.30;;;;;;4148483;28;20034;-66
2022/05/19 05:28:54;;;;;;;0.00;0.00;;;21.20;77.30;;;;;;4148679;28;20100;-67
2022/05/19 05:31:17;;;;;;;0.00;0.00;;;21.20;77.50;;;;;;4148404;28;20053;-67
2022/05/19 05:33:39;;;;;;;0.00;0.00;;;21.30;77.80;;;;;;4148313;28;20133;-67
2022/05/19 05:36:01;;;;;;;0.00;0.00;;;21.40;78.30;;;;;;4148217;28;20084;-67
2022/05/19 05:38:23;;;;;;;0.00;0.00;;;21.50;78.90;;;;;;4147906;28;20401;-68
2022/05/19 05:40:50;;;;;;;0.00;0.00;;;21.60;78.70;;;;;;4134627;28;20042;-67
2022/05/19 05:43:17;;;;;;;0.00;0.00;;;21.70;78.50;;;;;;4205911;28;20356;-65
2022/05/19 05:45:42;;;;;;;0.00;0.00;;;21.70;78.50;;;;;;4134945;28;20100;-68
2022/05/19 05:48:05;;;;;;;0.00;0.00;;;21.70;78.50;;;;;;4161339;28;20077;-67
2022/05/19 05:50:30;;;;;;;0.00;0.00;;;21.80;78.80;;;;;;4134248;28;20038;-66
2022/05/19 05:52:52;;;;;;;0.00;0.00;;;21.80;79.00;;;;;;4134486;28;20083;-65
2022/05/19 05:55:18;;;;;;;0.00;0.00;;;21.70;79.20;;;;;;4134775;28;20054;-67
2022/05/19 05:57:40;;;;;;;0.00;0.00;;;21.80;79.10;;;;;;4134180;28;20115;-65
2022/05/19 06:00:06;;;;;;;0.00;0.00;;;21.80;79.00;;;;;;4147754;28;20057;-66
2022/05/19 06:02:34;;;;;;;0.00;0.00;;;21.90;78.80;;;;;;4148011;28;20060;-66
2022/05/19 06:05:03;;;;;;;0.00;0.00;;;22.00;78.80;;;;;;4148078;28;20403;-67
2022/05/19 06:07:27;;;;;;;0.00;0.00;;;22.00;79.10;;;;;;4147802;28;20050;-64
2022/05/19 06:09:50;;;;;;;0.00;0.00;;;22.10;78.70;;;;;;4134297;28;20111;-64
2022/05/19 06:12:14;;;;;;;0.00;0.00;;;22.00;78.60;;;;;;4134364;28;20065;-66
2022/05/19 06:14:38;;;;;;;0.00;0.00;;;22.10;78.40;;;;;;4148084;28;20380;-68
2022/05/19 06:17:02;;;;;;;0.00;0.00;;;22.10;78.40;;;;;;4148725;28;20659;-67
2022/05/19 06:19:24;;;;;;;0.00;0.00;;;22.20;78.00;;;;;;4148667;28;20045;-69
2022/05/19 06:21:50;;;;;;;0.00;0.00;;;22.20;77.80;;;;;;4148582;28;20075;-68
2022/05/19 06:24:12;;;;;;;0.00;0.00;;;22.20;77.80;;;;;;4134850;28;20046;-66
2022/05/19 06:26:39;;;;;;;0.00;0.00;;;22.30;78.10;;;;;;4148555;28;20042;-67
2022/05/19 06:29:05;;;;;;;0.00;0.00;;;22.30;77.40;;;;;;4149194;28;20460;-67
2022/05/19 06:31:31;;;;;;;0.00;0.00;;;22.40;77.40;;;;;;4148031;28;20048;-67
2022/05/19 06:33:55;;;;;;;0.00;0.00;;;22.60;77.30;;;;;;4134723;28;20046;-68
2022/05/19 06:36:20;;;;;;;0.00;0.00;;;22.70;77.00;;;;;;4121532;28;20042;-67
2022/05/19 06:38:42;;;;;;;0.00;0.00;;;22.90;76.50;;;;;;4134887;28;20042;-66
2022/05/19 06:43:51;;;;;;;0.00;0.00;;;23.00;75.60;;;;;;4147903;28;20050;-67
2022/05/19 06:46:16;;;;;;;0.00;0.00;;;23.10;75.00;;;;;;4120881;28;20051;-67
2022/05/19 06:48:38;;;;;;;0.00;0.00;;;23.20;75.00;;;;;;4204894;28;20108;-67
2022/05/19 06:51:02;;;;;;;0.00;0.00;;;23.30;74.50;;;;;;4146927;28;20116;-66
2022/05/19 06:53:45;;;;;;;0.00;0.00;;;23.40;74.70;;;;;;4180202;28;20407;-67
2022/05/19 06:56:12;;;;;;;0.00;0.00;;;23.50;74.60;;;;;;4147520;28;20054;-69
2022/05/19 06:58:37;;;;;;;0.00;0.00;;;23.60;74.20;;;;;;4120982;28;20393;-68
2022/05/19 07:01:03;;;;;;;0.00;0.00;;;23.60;73.90;;;;;;4162092;28;20056;-68
2022/05/19 07:03:25;;;;;;;0.00;0.00;;;23.60;74.20;;;;;;4134361;28;20054;-66
2022/05/19 07:05:47;;;;;;;0.00;0.00;;;23.70;72.70;;;;;;4147357;28;20111;-67
2022/05/19 07:08:13;;;;;;;0.00;0.00;;;23.70;72.50;;;;;;4159110;28;20094;-67
2022/05/19 07:10:37;;;;;;;0.00;0.00;;;23.80;72.60;;;;;;4131858;28;20050;-67
2022/05/19 07:12:59;;;;;;;0.00;0.00;;;23.70;72.10;;;;;;4132162;28;20719;-67
2022/05/19 07:15:24;;;;;;;0.00;0.00;;;23.80;72.80;;;;;;4118558;28;20489;-67
2022/05/19 07:17:47;;;;;;;0.00;0.00;;;23.80;72.20;;;;;;4117990;28;20055;-67
2022/05/19 07:22:50;;;;;;;0.00;0.00;;;23.60;72.90;;;;;;4131473;28;20050;-67
2022/05/19 07:25:13;;;;;;;0.00;0.00;;;23.70;72.30;;;;;;4131758;28;20042;-66
2022/05/19 07:27:35;;;;;;;0.00;0.00;;;23.90;72.00;;;;;;4118106;28;20479;-67
2022/05/19 07:29:59;;;;;;;0.00;0.00;;;24.10;71.30;;;;;;4105152;28;20527;-67
2022/05/19 07:32:21;;;;;;;0.00;0.00;;;24.00;70.20;;;;;;4118006;28;20125;-68
2022/05/19 07:34:43;;;;;;;0.00;0.00;;;24.00;70.00;;;;;;4131559;28;20054;-68
2022/05/19 07:37:06;;;;;;;0.00;0.00;;;24.10;70.40;;;;;;4117797;28;20100;-67
2022/05/19 07:39:28;;;;;;;0.00;0.00;;;24.20;69.90;;;;;;4131641;28;20121;-67
2022/05/19 07:41:58;;;;;;;0.00;0.00;;;24.30;69.40;;;;;;4131434;28;20038;-68
2022/05/19 07:44:26;;;;;;;0.00;0.00;;;24.50;69.50;;;;;;4131210;28;20064;-68
2022/05/19 07:46:48;;;;;;;0.00;0.00;;;24.60;68.30;;;;;;4131104;28;20047;-67
2022/05/19 07:49:13;;;;;;;0.00;0.00;;;24.70;68.00;;;;;;4131510;28;20466;-67
2022/05/19 07:51:40;;;;;;;0.00;0.00;;;24.80;67.00;;;;;;4118062;28;20092;-67
2022/05/19 07:54:08;;;;;;;0.00;0.00;;;24.50;66.40;;;;;;4131731;28;20481;-69
2022/05/19 07:56:33;;;;;;;0.00;0.00;;;24.20;67.80;;;;;;4132001;28;20053;-66
2022/05/19 07:58:55;;;;;;;0.00;0.00;;;24.20;68.80;;;;;;4131098;28;20042;-67
2022/05/19 08:01:17;;;;;;;0.00;0.00;;;24.40;69.60;;;;;;4132275;28;20035;-68
2022/05/19 08:03:43;;;;;;;0.00;0.00;;;24.50;67.90;;;;;;4107675;28;20050;-67
2022/05/19 08:06:09;;;;;;;0.00;0.00;;;24.60;68.00;;;;;;4161798;28;20103;-67
2022/05/19 08:08:33;;;;;;;0.00;0.00;;;24.70;68.10;;;;;;4133986;28;20047;-67
2022/05/19 08:10:57;;;;;;;0.00;0.00;;;24.70;67.90;;;;;;4148116;28;20388;-66
2022/05/19 08:16:17;;;;;;;0.00;0.00;;;25.10;67.40;;;;;;4178621;28;20057;-66
2022/05/19 08:18:41;;;;;;;0.00;0.00;;;24.90;67.80;;;;;;4191040;28;20135;-69
2022/05/19 08:21:09;;;;;;;0.00;0.00;;;25.10;67.60;;;;;;4133902;28;20488;-68
2022/05/19 08:23:37;;;;;;;0.00;0.00;;;25.10;67.80;;;;;;4133831;28;20487;-65
2022/05/19 08:26:00;;;;;;;0.00;0.00;;;25.10;68.30;;;;;;4119801;28;20050;-65
2022/05/19 08:28:29;;;;;;;0.00;0.00;;;25.30;67.40;;;;;;4133811;28;20599;-66
2022/05/19 08:30:51;;;;;;;0.00;0.00;;;25.40;67.20;;;;;;4107531;28;20066;-66
2022/05/19 08:33:20;;;;;;;0.00;0.00;;;25.40;66.90;;;;;;4133476;28;20100;-66
2022/05/19 08:35:44;;;;;;;0.00;0.00;;;25.30;66.50;;;;;;4119802;28;20055;-66
2022/05/19 08:38:07;;;;;;;0.00;0.00;;;25.30;67.00;;;;;;4133475;28;20108;-65
2022/05/19 08:40:29;;;;;;;0.00;0.00;;;25.30;67.40;;;;;;4133481;28;20660;-67
2022/05/19 08:42:58;;;;;;;0.00;0.00;;;25.50;66.60;;;;;;4119826;28;20108;-67
2022/05/19 08:45:27;;;;;;;0.00;0.00;;;25.60;65.90;;;;;;4133354;28;20050;-68
2022/05/19 08:47:58;;;;;;;0.00;0.00;;;25.80;65.90;;;;;;4133139;28;20054;-68
2022/05/19 08:50:35;;;;;;;0.00;0.00;;;25.90;65.10;;;;;;4133222;28;20062;-67
2022/05/19 08:53:03;;;;;;;0.00;0.00;;;25.90;64.30;;;;;;4119981;28;20098;-67
2022/05/19 08:55:30;;;;;;;0.00;0.00;;;25.90;66.30;;;;;;4133136;28;20095;-67
2022/05/19 08:58:04;;;;;;;0.00;0.00;;;25.90;67.30;;;;;;4120013;28;20062;-68
2022/05/19 09:00:36;;;;;;;0.00;0.00;;;25.90;67.50;;;;;;4133079;28;20056;-68
2022/05/19 09:03:18;;;;;;;0.00;0.00;;;25.80;67.70;;;;;;4133264;28;20480;-67
2022/05/19 09:06:18;;;;;;;0.00;0.00;;;25.80;68.20;;;;;;4119540;28;20054;-67
2022/05/19 09:09:04;;;;;;;0.00;0.00;;;26.00;68.80;;;;;;4132944;28;20108;-69
2022/05/19 09:11:41;;;;;;;0.00;0.00;;;26.00;65.10;;;;;;4133176;28;20465;-68
2022/05/19 09:14:36;;;;;;;0.00;0.00;;;26.10;64.60;;;;;;4118954;28;20084;-68
2022/05/19 09:17:08;;;;;;;0.00;0.00;;;26.30;64.90;;;;;;4132624;28;20142;-67
2022/05/19 09:19:56;;;;;;;0.00;0.00;;;26.30;65.80;;;;;;4160318;28;20045;-67
2022/05/19 09:22:22;;;;;;;0.00;0.00;;;26.20;66.60;;;;;;4119637;28;20056;-68
2022/05/19 09:24:49;;;;;;;0.00;0.00;;;26.10;66.30;;;;;;4133112;28;20054;-67
2022/05/19 09:27:12;;;;;;;0.00;0.00;;;25.90;67.10;;;;;;4133515;28;20160;-68
2022/05/19 09:29:36;;;;;;;0.00;0.00;;;26.00;66.60;;;;;;4119544;28;20104;-68
2022/05/19 09:32:10;;;;;;;0.00;0.00;;;26.00;65.50;;;;;;4133026;28;20050;-68
2022/05/19 09:34:37;;;;;;;0.00;0.00;;;26.20;65.20;;;;;;4119213;28;20038;-68
2022/05/19 09:37:02;;;;;;;0.00;0.00;;;26.40;64.40;;;;;;4146336;28;20080;-68
2022/05/19 09:39:33;;;;;;;0.00;0.00;;;26.60;61.50;;;;;;4119125;28;20039;-67
2022/05/19 09:42:01;;;;;;;0.00;0.00;;;26.70;62.20;;;;;;4132892;28;20084;-69
2022/05/19 09:44:29;;;;;;;0.00;0.00;;;26.70;61.10;;;;;;4132893;28;20053;-69
2022/05/19 09:46:51;;;;;;;0.00;0.00;;;26.70;60.40;;;;;;4119451;28;20055;-67
2022/05/19 09:49:19;;;;;;;0.00;0.00;;;26.70;61.10;;;;;;4159958;28;20053;-68
2022/05/19 09:51:51;;;;;;;0.00;0.00;;;26.80;60.40;;;;;;4132509;28;20150;-67
2022/05/19 09:54:15;;;;;;;0.00;0.00;;;26.90;59.90;;;;;;4119289;28;20054;-67
2022/05/19 09:57:04;;;;;;;0.00;0.00;;;27.00;60.00;;;;;;4146442;28;20058;-68
2022/05/19 09:59:46;;;;;;;0.00;0.00;;;27.20;57.90;;;;;;4132629;28;20540;-68
2022/05/19 10:02:17;;;;;;;;;;;27.30;57.60;;;;;;4132602;28;20086;-69
2022/05/19 10:04:49;;;;;;;0.00;0.00;;;27.30;57.90;;;;;;4132441;28;19926;-68
2022/05/19 10:07:23;;;;;;;0.00;0.00;;;27.30;57.30;;;;;;4132627;28;20054;-68
2022/05/19 10:09:48;;;;;;;0.00;0.00;;;27.30;57.00;;;;;;4132877;28;20054;-69
2022/05/19 10:12:22;;;;;;;0.00;0.00;;;27.20;57.80;;;;;;4132339;28;20044;-66
2022/05/19 10:14:56;;;;;;;0.00;0.00;;;27.40;57.90;;;;;;4119518;28;20413;-68
2022/05/19 10:17:36;;;;;;;0.00;0.00;;;27.40;57.30;;;;;;4132687;28;20419;-68
2022/05/19 10:20:19;;;;;;;0.00;0.00;;;27.50;57.40;;;;;;4132544;28;20046;-66
2022/05/19 10:23:18;;;;;;;0.00;0.00;;;27.50;55.50;;;;;;4132656;28;20141;-70
2022/05/19 10:26:08;;;;;;;0.00;0.00;;;27.40;56.00;;;;;;4132757;28;20523;-68
2022/05/19 10:31:53;;;;;;;0.00;0.00;;;27.60;57.70;;;;;;4132221;28;20054;-67
2022/05/19 10:34:39;;;;;;;0.00;0.00;;;27.70;58.70;;;;;;4189445;28;20572;-68
2022/05/19 10:37:09;;;;;;;0.00;0.00;;;27.90;56.10;;;;;;4131714;28;20054;-68
2022/05/19 10:39:37;;;;;;;0.00;0.00;;;27.80;55.60;;;;;;4105343;28;20444;-68
2022/05/19 10:42:20;;;;;;;0.00;0.00;;;27.90;55.60;;;;;;4132383;28;20064;-67
2022/05/19 10:45:01;;;;;;;0.00;0.00;;;28.00;55.50;;;;;;4132238;28;20051;-68
2022/05/19 10:47:44;;;;;;;0.00;0.00;;;28.00;56.50;;;;;;4131835;28;20427;-67
2022/05/19 10:50:26;;;;;;;0.00;0.00;;;28.00;56.00;;;;;;4131756;28;20563;-67
2022/05/19 10:53:09;;;;;;;0.00;0.00;;;28.10;55.10;;;;;;4132339;28;20054;-67
2022/05/19 10:55:56;;;;;;;0.00;0.00;;;28.20;56.10;;;;;;4118428;28;20074;-66
2022/05/19 10:58:47;;;;;;;0.00;0.00;;;28.20;53.50;;;;;;4119304;28;20051;-66
2022/05/19 11:01:33;;;;;;;0.00;0.00;;;28.20;53.50;;;;;;4118517;28;20047;-66
2022/05/19 11:04:07;;;;;;;0.00;0.00;;;28.40;53.20;;;;;;4159302;28;20076;-66
2022/05/19 11:06:49;;;;;;;0.00;0.00;;;28.50;54.20;;;;;;4131843;28;20108;-65
2022/05/19 11:09:29;;;;;;;0.00;0.00;;;28.50;53.80;;;;;;4138905;28;20481;-66
2022/05/19 11:12:29;;;;;;;0.00;0.00;;;28.60;53.70;;;;;;4131459;28;20123;-67
2022/05/19 11:15:09;;;;;;;0.00;0.00;;;28.80;53.70;;;;;;4118585;28;20412;-67
2022/05/19 11:17:52;;;;;;;0.00;0.00;;;29.00;53.90;;;;;;4131680;28;20649;-66
2022/05/19 11:20:22;;;;;;;0.00;0.00;;;29.10;53.70;;;;;;4118303;28;20409;-67
2022/05/19 11:22:51;;;;;;;0.00;0.00;;;29.20;53.20;;;;;;4119219;28;20054;-69
2022/05/19 11:28:24;;;;;;;0.00;0.00;;;29.20;51.90;;;;;;4131465;28;20180;-69
2022/05/19 11:30:56;;;;;;;0.00;0.00;;;29.30;52.20;;;;;;4118370;28;20058;-66
2022/05/19 11:33:23;;;;;;;0.00;0.00;;;29.30;51.90;;;;;;4131510;28;20050;-67
2022/05/19 11:36:01;;;;;;;0.00;0.00;;;29.40;51.90;;;;;;4132334;28;20039;-68
2022/05/19 11:38:29;;;;;;;0.00;0.00;;;29.40;51.00;;;;;;4162124;28;20426;-67
2022/05/19 11:40:57;;;;;;;0.00;0.00;;;29.30;51.10;;;;;;4120526;28;20047;-67
2022/05/19 11:43:37;;;;;;;0.00;0.00;;;29.30;50.80;;;;;;4147788;28;20045;-68
2022/05/19 11:46:17;;;;;;;0.00;0.00;;;29.40;50.90;;;;;;4120721;28;20090;-67
2022/05/19 11:55:14;;;;;;;0.00;0.00;;;29.60;50.10;;;;;;4120732;28;20061;-67
2022/05/19 11:57:52;;;;;;;0.00;0.00;;;29.60;50.70;;;;;;4120558;28;20148;-67
2022/05/19 12:00:27;;;;;;;0.00;0.00;;;29.60;50.60;;;;;;4120342;28;20058;-66
2022/05/19 12:02:58;;;;;;;0.00;0.00;;;29.70;50.20;;;;;;4133793;28;20139;-68
2022/05/19 12:05:35;;;;;;;0.00;0.00;;;29.70;50.70;;;;;;4134055;28;20367;-66
2022/05/19 12:08:17;;;;;;;0.00;0.00;;;29.80;50.90;;;;;;4120149;28;20141;-65
2022/05/19 12:10:50;;;;;;;0.00;0.00;;;29.90;51.30;;;;;;4120054;28;20116;-66
2022/05/19 12:13:15;;;;;;;0.00;0.00;;;29.90;50.30;;;;;;4120271;28;20043;-66
2022/05/19 12:15:50;;;;;;;0.00;0.00;;;29.80;49.90;;;;;;4134069;28;20435;-67
2022/05/19 12:18:24;;;;;;;0.00;0.00;;;29.90;50.00;;;;;;4120725;28;20059;-66
2022/05/19 12:20:51;;;;;;;0.00;0.00;;;29.80;49.50;;;;;;4120504;28;20066;-67
2022/05/19 12:23:26;;;;;;;0.00;0.00;;;29.70;49.70;;;;;;4120102;28;20055;-67
2022/05/19 12:25:51;;;;;;;0.00;0.00;;;29.60;50.10;;;;;;4120286;28;20542;-67
2022/05/19 12:28:13;;;;;;;0.00;0.00;;;29.60;50.50;;;;;;4120230;28;20088;-66
2022/05/19 12:33:36;;;;;;;0.00;0.00;;;29.20;50.40;;;;;;4147413;28;20062;-66
2022/05/19 12:35:59;;;;;;;0.00;0.00;;;29.10;50.10;;;;;;4120009;28;20045;-66
2022/05/19 12:38:29;;;;;;;0.00;0.00;;;29.00;50.00;;;;;;4133728;28;20120;-66
2022/05/19 12:40:54;;;;;;;0.00;0.00;;;29.00;50.20;;;;;;4133272;28;20042;-68
2022/05/19 12:43:20;;;;;;;0.00;0.00;;;29.00;50.30;;;;;;4147782;28;20114;-67
2022/05/19 12:45:48;;;;;;;0.00;0.00;;;28.90;50.50;;;;;;4133557;28;20070;-67
2022/05/19 12:48:15;;;;;;;0.00;0.00;;;28.80;50.20;;;;;;4159600;28;20100;-65
2022/05/19 12:51:09;;;;;;;0.00;0.00;;;28.80;50.40;;;;;;4132934;28;20120;-67
2022/05/19 12:53:49;;;;;;;0.00;0.00;;;28.80;50.70;;;;;;4133489;28;20050;-68
2022/05/19 12:56:41;;;;;;;0.00;0.00;;;28.60;51.90;;;;;;4133266;28;20043;-67
2022/05/19 12:59:06;;;;;;;0.00;0.00;;;28.60;52.90;;;;;;4092667;28;20059;-69
2022/05/19 13:01:44;;;;;;;0.00;0.00;;;28.50;52.50;;;;;;4133859;28;20523;-69
2022/05/19 13:04:16;;;;;;;0.00;0.00;;;28.50;52.60;;;;;;4133835;28;20069;-67
2022/05/19 13:06:54;;;;;;;0.00;0.00;;;28.30;53.20;;;;;;4133219;28;20058;-70
2022/05/19 13:09:26;;;;;;;0.00;0.00;;;28.10;58.40;;;;;;4146590;28;20046;-69
2022/05/19 13:11:59;;;;;;;0.00;0.00;;;27.90;60.40;;;;;;4133565;28;20054;-67
2022/05/19 13:14:42;;;;;;;0.00;0.00;;;27.70;61.10;;;;;;4133425;28;20038;-68
2022/05/19 13:17:13;;;;;;;0.00;0.00;;;27.60;62.70;;;;;;4133261;28;20046;-69
2022/05/19 13:19:37;;;;;;;0.00;0.00;;;27.30;65.20;;;;;;4106674;28;20116;-66
2022/05/19 13:22:10;;;;;;;0.00;0.00;;;27.10;68.50;;;;;;4133069;28;20046;-67
2022/05/19 13:24:38;;;;;;;0.00;0.00;;;26.90;70.10;;;;;;4132969;28;20111;-66
2022/05/19 13:32:39;;;;;;;0.00;0.00;;;26.50;70.50;;;;;;4119481;28;20046;-67
2022/05/19 13:35:12;;;;;;;0.00;0.00;;;26.60;69.90;;;;;;4119359;28;20115;-66